createdAt,value
2023-05-09T05:01:11.653Z,42.07
2023-05-09T05:02:11.501Z,41.04
2023-05-09T05:03:11.520Z,40.91
2023-05-09T05:04:11.570Z,40.83
2023-05-09T05:05:12.585Z,40.79
2023-05-09T05:06:11.657Z,40.77
2023-05-09T05:07:11.645Z,40.69
2023-05-09T05:08:11.670Z,40.68
2023-05-09T05:09:11.685Z,40.66
2023-05-09T05:10:11.709Z,40.64
2023-05-09T05:11:11.759Z,40.61
2023-05-09T05:12:11.833Z,40.59
2023-05-09T05:13:11.883Z,40.58
2023-05-09T05:14:11.900Z,40.56
2023-05-09T05:15:12.043Z,40.58
2023-05-09T05:16:12.065Z,40.53
2023-05-09T05:17:12.136Z,40.55
2023-05-09T05:18:12.088Z,40.53
2023-05-09T05:19:12.101Z,40.54
2023-05-09T05:20:12.153Z,40.57
2023-05-09T05:21:12.188Z,40.56
2023-05-09T05:22:12.293Z,40.52
2023-05-09T05:23:12.261Z,40.51
2023-05-09T05:24:12.280Z,40.56
2023-05-09T05:25:12.438Z,40.52
2023-05-09T05:26:12.306Z,40.54
2023-05-09T05:27:12.400Z,40.52
2023-05-09T05:28:12.436Z,40.58
2023-05-09T05:29:12.406Z,40.55
2023-05-09T05:30:12.463Z,40.57
2023-05-09T05:31:12.543Z,40.57
2023-05-09T05:32:12.499Z,40.53
2023-05-09T05:33:12.614Z,40.54
2023-05-09T05:34:12.584Z,40.55
2023-05-09T05:35:12.795Z,40.52
2023-05-09T05:36:12.615Z,40.53
2023-05-09T05:37:12.645Z,40.53
2023-05-09T05:38:12.629Z,40.53
2023-05-09T05:39:12.650Z,40.59
2023-05-09T05:40:12.893Z,40.54
2023-05-09T05:41:12.685Z,40.56
2023-05-09T05:42:12.726Z,40.53
2023-05-09T05:43:12.890Z,40.55
2023-05-09T05:44:12.772Z,40.67
2023-05-09T05:45:12.906Z,40.62
2023-05-09T05:46:12.899Z,40.59
2023-05-09T05:47:12.842Z,40.73
2023-05-09T05:48:12.845Z,40.63
2023-05-09T05:49:12.953Z,40.66
2023-05-09T07:40:12.657Z,45.92
2023-05-09T07:41:12.344Z,46.13
2023-05-09T07:42:12.331Z,45.98
2023-05-09T07:43:12.307Z,46.30
2023-05-09T07:44:12.319Z,46.28
2023-05-09T07:45:12.514Z,46.17
2023-05-09T07:46:12.347Z,46.15
2023-05-09T07:47:12.268Z,45.99
2023-05-09T07:48:12.347Z,45.90
2023-05-09T07:49:12.288Z,45.92
2023-05-09T07:50:12.268Z,45.77
2023-05-09T07:51:12.262Z,45.32
2023-05-09T07:52:12.246Z,45.21
2023-05-09T07:53:12.265Z,45.13
2023-05-09T07:54:12.216Z,45.05
2023-05-09T07:55:12.316Z,45.13
2023-05-09T07:56:12.328Z,44.79
2023-05-09T07:57:12.222Z,44.86
2023-05-09T07:58:12.225Z,44.85
2023-05-09T07:59:12.257Z,44.72
2023-05-09T08:00:12.184Z,44.63
2023-05-09T08:01:12.169Z,44.46
2023-05-09T08:02:12.211Z,44.35
2023-05-09T08:03:12.267Z,44.21
2023-05-09T08:04:12.241Z,44.04
2023-05-09T08:05:12.205Z,43.94
2023-05-09T08:06:12.200Z,43.75
2023-05-09T08:07:12.159Z,43.70
2023-05-09T08:08:12.150Z,43.65
2023-05-09T08:09:12.127Z,43.57
2023-05-09T08:10:12.125Z,43.44
2023-05-09T08:11:12.128Z,43.40
2023-05-09T08:12:12.262Z,43.34
2023-05-09T08:13:12.187Z,43.26
2023-05-09T08:14:12.802Z,43.20
2023-05-09T08:15:12.206Z,43.22
2023-05-09T08:16:12.152Z,43.13
2023-05-09T08:17:12.098Z,42.98
2023-05-09T08:18:12.044Z,42.86
2023-05-09T08:19:12.065Z,42.81
2023-05-09T08:20:12.043Z,42.74
2023-05-09T08:21:12.096Z,42.58
2023-05-09T08:22:12.043Z,42.41
2023-05-09T08:23:12.067Z,42.36
2023-05-09T08:24:12.036Z,42.37
2023-05-09T08:25:12.053Z,42.29
2023-05-09T08:26:11.996Z,42.29
2023-05-09T08:27:12.018Z,42.23
2023-05-09T08:28:12.153Z,42.45
2023-05-09T08:29:11.985Z,43.52
2023-05-09T08:30:11.966Z,43.41
2023-05-09T08:31:12.021Z,43.13
2023-05-09T08:32:12.026Z,44.40
2023-05-09T08:33:12.090Z,44.67
2023-05-09T08:34:11.980Z,44.33
2023-05-09T08:35:11.975Z,44.15
2023-05-09T08:36:11.933Z,44.57
2023-05-09T08:37:14.451Z,44.59
2023-05-09T08:38:11.963Z,44.44
2023-05-09T08:39:11.912Z,44.36
2023-05-09T08:40:11.960Z,44.64
2023-05-09T08:41:11.903Z,44.78
2023-05-09T08:42:11.934Z,44.82
2023-05-09T08:43:11.934Z,44.88
2023-05-09T08:44:12.034Z,44.84
2023-05-09T08:45:11.889Z,44.99
2023-05-09T08:46:11.928Z,45.02
2023-05-09T08:47:11.882Z,45.06
2023-05-09T08:48:11.882Z,45.61
2023-05-09T08:49:11.871Z,45.48
2023-05-09T08:50:12.055Z,45.71
2023-05-09T08:51:11.840Z,45.64
2023-05-09T08:52:11.855Z,45.58
2023-05-09T08:53:11.828Z,45.29
2023-05-09T08:54:11.808Z,45.98
2023-05-09T08:55:11.856Z,45.96
2023-05-09T08:56:11.825Z,45.97
2023-05-09T08:57:11.793Z,45.99
2023-05-09T08:58:11.811Z,45.78
2023-05-09T08:59:11.791Z,45.65
2023-05-09T09:00:11.887Z,45.76
2023-05-09T09:01:11.793Z,45.89
2023-05-09T09:02:11.839Z,45.93
2023-05-09T09:03:11.881Z,45.92
2023-05-09T09:04:11.747Z,45.91
2023-05-09T09:05:23.855Z,45.83
2023-05-09T09:06:12.727Z,46.08
2023-05-09T09:07:11.756Z,45.70
2023-05-09T09:08:11.737Z,45.47
2023-05-09T09:09:11.736Z,45.22
2023-05-09T09:10:11.709Z,45.07
2023-05-09T09:11:11.705Z,45.12
2023-05-09T09:12:11.708Z,44.62
2023-05-09T09:13:11.729Z,45.06
2023-05-09T09:14:11.659Z,45.65
2023-05-09T09:15:11.660Z,45.20
2023-05-09T09:16:11.766Z,45.04
2023-05-09T09:17:11.687Z,44.84
2023-05-09T09:18:11.734Z,44.68
2023-05-09T09:19:11.652Z,45.03
2023-05-09T09:20:11.667Z,44.91
2023-05-09T09:21:11.641Z,44.64
2023-05-09T09:22:11.622Z,44.57
2023-05-09T09:23:11.582Z,44.32
2023-05-09T09:24:11.607Z,44.11
2023-05-09T09:25:11.605Z,44.01
2023-05-09T09:26:11.583Z,43.88
2023-05-09T09:27:11.610Z,43.27
2023-05-09T09:28:11.576Z,43.30
2023-05-09T09:29:11.559Z,42.85
2023-05-09T09:30:11.565Z,43.07
2023-05-09T09:31:11.599Z,42.91
2023-05-09T09:32:11.774Z,42.76
2023-05-09T09:33:11.694Z,42.42
2023-05-09T09:34:11.699Z,42.28
2023-05-09T09:35:11.765Z,41.80
2023-05-09T09:36:11.821Z,41.98
2023-05-09T09:37:11.836Z,41.89
2023-05-09T09:38:11.894Z,41.93
2023-05-09T09:39:11.966Z,41.94
2023-05-09T09:40:12.282Z,41.90
2023-05-09T09:41:12.061Z,41.76
2023-05-09T09:42:12.104Z,41.37
2023-05-09T09:43:12.176Z,41.12
2023-05-09T09:44:12.216Z,41.37
2023-05-09T09:45:12.277Z,40.98
2023-05-09T09:46:12.374Z,40.95
2023-05-09T09:47:12.398Z,41.15
2023-05-09T09:48:12.597Z,41.07
2023-05-09T09:49:12.484Z,41.18
2023-05-09T09:50:12.705Z,40.99
2023-05-09T09:51:12.611Z,40.66
2023-05-09T09:52:12.669Z,40.62
2023-05-09T09:53:12.756Z,40.39
2023-05-09T09:54:12.680Z,40.43
2023-05-09T09:55:12.695Z,40.52
2023-05-09T09:56:12.700Z,40.65
2023-05-09T09:57:12.714Z,40.57
2023-05-09T09:58:12.746Z,40.62
2023-05-09T09:59:12.723Z,40.80
2023-05-09T10:00:12.890Z,40.88
2023-05-09T10:01:12.754Z,41.19
2023-05-09T10:02:12.746Z,41.09
2023-05-09T10:03:12.877Z,41.33
2023-05-09T10:04:12.841Z,41.29
2023-05-09T10:05:12.732Z,41.35
2023-05-09T10:06:12.750Z,41.15
2023-05-09T10:07:14.926Z,41.63
2023-05-09T10:08:12.807Z,41.43
2023-05-09T10:09:12.817Z,41.44
2023-05-09T10:10:13.252Z,41.52
2023-05-09T10:11:12.832Z,41.38
2023-05-09T10:12:12.797Z,40.78
2023-05-09T10:13:12.940Z,40.68
2023-05-09T10:14:12.885Z,40.88
2023-05-09T10:15:12.850Z,41.05
2023-05-09T10:16:13.122Z,41.20
2023-05-09T10:17:12.917Z,41.04
2023-05-09T10:18:12.983Z,41.44
2023-05-09T10:19:12.911Z,41.54
2023-05-09T10:20:13.414Z,41.32
2023-05-09T10:21:13.115Z,41.63
2023-05-09T10:22:13.117Z,41.67
2023-05-09T10:23:13.171Z,41.91
2023-05-09T10:24:13.253Z,41.98
2023-05-09T10:25:13.582Z,41.65
2023-05-09T10:26:13.375Z,41.18
2023-05-09T10:27:13.462Z,41.02
2023-05-09T10:28:13.480Z,41.69
2023-05-09T10:29:13.540Z,41.68
2023-05-09T10:30:13.549Z,41.78
2023-05-09T10:31:13.585Z,41.43
2023-05-09T10:32:13.584Z,41.20
2023-05-09T10:33:13.622Z,41.08
2023-05-09T10:34:13.647Z,40.76
2023-05-09T10:35:13.923Z,40.16
2023-05-09T10:36:13.828Z,40.13
2023-05-09T10:37:13.727Z,40.50
2023-05-09T10:38:13.741Z,40.37
2023-05-09T10:39:13.822Z,40.38
2023-05-09T10:40:13.762Z,40.99
2023-05-09T10:41:13.753Z,40.50
2023-05-09T10:42:13.757Z,40.23
2023-05-09T10:43:13.757Z,40.45
2023-05-09T10:44:13.772Z,40.63
2023-05-09T10:45:14.107Z,40.55
2023-05-09T10:46:13.813Z,40.50
2023-05-09T10:47:13.780Z,39.79
2023-05-09T10:48:13.822Z,39.13
2023-05-09T10:49:13.816Z,38.82
2023-05-09T10:50:13.834Z,39.20
2023-05-09T10:51:13.843Z,39.07
2023-05-09T10:52:13.923Z,39.28
2023-05-09T10:53:13.847Z,39.19
2023-05-09T10:54:13.860Z,39.17
2023-05-09T10:55:13.988Z,39.24
2023-05-09T10:56:13.903Z,39.22
2023-05-09T10:57:13.964Z,39.15
2023-05-09T10:58:13.994Z,39.28
2023-05-09T10:59:14.068Z,39.31
2023-05-09T11:00:14.135Z,39.27
2023-05-09T11:01:14.229Z,39.28
2023-05-09T11:02:14.231Z,39.24
2023-05-09T11:03:14.339Z,38.88
2023-05-09T11:04:14.514Z,38.67
2023-05-09T11:05:14.566Z,38.24
2023-05-09T11:06:14.478Z,38.38
2023-05-09T11:07:14.820Z,37.76
2023-05-09T11:08:14.678Z,37.71
2023-05-09T11:09:14.656Z,38.35
2023-05-09T11:10:14.686Z,38.08
2023-05-09T11:11:14.757Z,38.59
2023-05-09T11:12:14.829Z,38.70
2023-05-09T11:13:14.924Z,38.62
2023-05-09T11:14:14.921Z,38.66
2023-05-09T11:15:15.175Z,38.81
2023-05-09T11:16:15.078Z,39.01
2023-05-09T11:17:15.113Z,39.15
2023-05-09T11:18:15.306Z,39.48
2023-05-09T11:19:15.216Z,39.50
2023-05-09T11:20:15.332Z,39.53
2023-05-09T11:21:15.334Z,39.50
2023-05-09T11:22:15.377Z,39.40
2023-05-09T11:23:15.396Z,39.47
2023-05-09T11:24:15.521Z,39.66
2023-05-09T11:25:15.657Z,39.65
2023-05-09T11:26:15.510Z,39.76
2023-05-09T11:27:15.542Z,39.88
2023-05-09T11:28:15.546Z,39.78
2023-05-09T11:29:15.553Z,39.77
2023-05-09T11:30:15.652Z,39.79
2023-05-09T11:31:15.556Z,39.80
2023-05-09T11:32:15.841Z,39.80
2023-05-09T11:33:15.591Z,39.84
2023-05-09T11:34:15.582Z,39.94
2023-05-09T11:35:15.944Z,39.95
2023-05-09T11:36:15.638Z,39.94
2023-05-09T11:37:15.592Z,40.00
2023-05-09T11:38:15.605Z,39.97
2023-05-09T11:39:15.592Z,40.12
2023-05-09T11:40:15.749Z,40.06
2023-05-09T11:41:15.593Z,39.71
2023-05-09T11:42:15.590Z,39.67
2023-05-09T11:43:15.577Z,39.74
2023-05-09T11:44:15.603Z,39.19
2023-05-09T11:45:15.724Z,39.34
2023-05-09T11:46:15.630Z,39.56
2023-05-09T11:47:15.574Z,39.69
2023-05-09T11:48:15.581Z,39.63
2023-05-09T11:49:15.600Z,39.72
2023-05-09T11:50:15.638Z,39.67
2023-05-09T11:51:15.577Z,39.62
2023-05-09T11:52:15.599Z,39.52
2023-05-09T11:53:15.553Z,39.47
2023-05-09T11:54:15.638Z,39.52
2023-05-09T11:55:15.753Z,39.64
2023-05-09T11:56:15.656Z,39.60
2023-05-09T11:57:15.580Z,39.45
2023-05-09T11:58:15.597Z,39.33
2023-05-09T11:59:15.672Z,39.45
2023-05-09T12:00:15.787Z,39.42
2023-05-09T12:01:15.683Z,39.42
2023-05-09T12:02:15.720Z,39.42
2023-05-09T12:03:15.777Z,39.40
2023-05-09T12:04:15.729Z,39.50
2023-05-09T12:05:15.956Z,39.71
2023-05-09T12:06:15.688Z,39.69
2023-05-09T12:07:15.722Z,39.58
2023-05-09T12:08:15.744Z,39.51
2023-05-09T12:09:15.788Z,38.88
2023-05-09T12:10:15.858Z,38.26
2023-05-09T12:11:15.851Z,38.67
2023-05-09T12:12:15.940Z,38.33
2023-05-09T12:13:15.957Z,38.21
2023-05-09T12:14:15.899Z,37.83
2023-05-09T12:15:16.271Z,37.50
2023-05-09T12:16:15.972Z,37.69
2023-05-09T12:17:15.974Z,37.45
2023-05-09T12:18:15.956Z,36.66
2023-05-09T12:19:15.941Z,36.32
2023-05-09T12:20:16.008Z,36.17
2023-05-09T12:21:15.992Z,36.23
2023-05-09T12:22:15.939Z,36.01
2023-05-09T12:23:15.941Z,36.14
2023-05-09T12:24:15.912Z,35.73
2023-05-09T12:25:16.125Z,35.60
2023-05-09T12:26:15.951Z,35.76
2023-05-09T12:27:15.954Z,35.48
2023-05-09T12:28:16.036Z,35.35
2023-05-09T12:29:15.942Z,35.27
2023-05-09T12:30:16.009Z,35.22
2023-05-09T12:31:16.028Z,34.86
2023-05-09T12:32:15.987Z,34.99
2023-05-09T12:33:15.952Z,34.93
2023-05-09T12:34:15.969Z,34.84
2023-05-09T12:35:16.146Z,34.56
2023-05-09T12:36:15.949Z,34.64
2023-05-09T12:37:15.933Z,34.59
2023-05-09T12:38:15.969Z,34.47
2023-05-09T12:39:15.943Z,34.52
2023-05-09T12:40:15.997Z,34.47
2023-05-09T12:41:30.905Z,34.42
2023-05-09T12:42:16.973Z,34.59
2023-05-09T12:43:15.931Z,34.48
2023-05-09T12:44:16.041Z,34.41
2023-05-09T12:45:16.103Z,34.41
2023-05-09T12:46:15.960Z,34.40
2023-05-09T12:47:15.968Z,34.32
2023-05-09T12:48:15.909Z,34.32
2023-05-09T12:49:15.916Z,34.09
2023-05-09T12:50:15.928Z,34.12
2023-05-09T12:51:15.887Z,34.05
2023-05-09T12:52:15.900Z,34.02
2023-05-09T12:53:15.903Z,33.97
2023-05-09T12:54:15.876Z,33.78
2023-05-09T12:55:16.121Z,33.74
2023-05-09T12:56:15.874Z,33.86
2023-05-09T12:57:15.859Z,33.74
2023-05-09T12:58:15.846Z,33.66
2023-05-09T12:59:15.835Z,33.66
2023-05-09T13:00:15.877Z,33.70
2023-05-09T13:01:16.022Z,33.58
2023-05-09T13:02:16.072Z,33.64
2023-05-09T13:03:16.106Z,33.64
2023-05-09T13:04:16.118Z,33.63
2023-05-09T13:05:16.433Z,33.63
2023-05-09T13:06:16.261Z,33.48
2023-05-09T13:07:16.295Z,33.44
2023-05-09T13:08:16.346Z,33.42
2023-05-09T13:09:16.398Z,33.41
2023-05-09T13:10:16.435Z,33.29
2023-05-09T13:11:17.285Z,33.22
2023-05-09T13:12:16.557Z,33.21
2023-05-09T13:13:16.660Z,33.17
2023-05-09T13:14:16.667Z,33.02
2023-05-09T13:15:17.220Z,32.93
2023-05-09T13:16:17.979Z,32.88
2023-05-09T13:17:16.896Z,32.88
2023-05-09T13:18:16.925Z,32.78
2023-05-09T13:19:16.981Z,32.72
2023-05-09T13:20:17.306Z,32.71
2023-05-09T13:21:17.110Z,32.53
2023-05-09T13:22:17.156Z,32.40
2023-05-09T13:23:17.231Z,32.35
2023-05-09T13:24:17.311Z,32.39
2023-05-09T13:25:17.363Z,32.37
2023-05-09T13:26:17.442Z,32.11
2023-05-09T13:27:17.495Z,32.26
2023-05-09T13:28:17.554Z,32.23
2023-05-09T13:29:17.628Z,32.32
2023-05-09T13:30:18.160Z,32.21
2023-05-09T13:31:17.872Z,32.18
2023-05-09T13:32:17.893Z,32.03
2023-05-09T13:33:25.886Z,32.00
2023-05-09T13:34:18.858Z,31.99
2023-05-09T13:35:17.907Z,31.93
2023-05-09T13:36:17.858Z,31.97
2023-05-09T13:37:17.843Z,32.06
2023-05-09T13:38:17.843Z,31.92
2023-05-09T13:39:17.825Z,31.85
2023-05-09T13:40:17.932Z,31.88
2023-05-09T13:41:17.834Z,31.83
2023-05-09T13:42:19.172Z,31.89
2023-05-09T13:43:17.911Z,31.69
2023-05-09T13:44:17.924Z,31.62
2023-05-09T13:45:17.969Z,31.67
2023-05-09T13:46:18.114Z,31.59
2023-05-09T13:47:18.086Z,31.55
2023-05-09T13:48:18.263Z,31.55
2023-05-09T13:49:18.211Z,31.55
2023-05-09T13:50:18.559Z,31.43
2023-05-09T13:51:18.297Z,31.61
2023-05-09T13:52:18.377Z,31.41
2023-05-09T13:53:18.408Z,31.11
2023-05-09T13:54:18.471Z,31.66
2023-05-09T13:55:18.557Z,32.18
2023-05-09T13:56:18.573Z,32.09
2023-05-09T13:57:18.628Z,32.13
2023-05-09T13:58:18.683Z,31.70
2023-05-09T13:59:18.766Z,31.66
2023-05-09T14:00:18.986Z,31.62
2023-05-09T14:01:18.952Z,31.97
2023-05-09T14:02:18.930Z,31.92
2023-05-09T14:03:19.015Z,32.44
2023-05-09T14:04:19.000Z,32.34
2023-05-09T14:05:19.029Z,33.44
2023-05-09T14:06:19.128Z,32.78
2023-05-09T14:07:19.158Z,32.67
2023-05-09T14:08:19.225Z,32.63
2023-05-09T14:09:19.273Z,32.62
2023-05-09T14:10:19.492Z,32.72
2023-05-09T14:11:19.392Z,32.60
2023-05-09T14:12:19.407Z,32.63
2023-05-09T14:13:19.549Z,32.60
2023-05-09T14:14:19.519Z,32.62
2023-05-09T14:15:19.572Z,32.64
2023-05-09T14:16:19.668Z,32.66
2023-05-09T14:17:19.724Z,32.65
2023-05-09T14:18:21.138Z,32.62
2023-05-09T14:19:19.774Z,32.59
2023-05-09T14:20:19.954Z,32.58
2023-05-09T14:21:19.865Z,32.58
2023-05-09T14:22:20.023Z,32.55
2023-05-09T14:23:19.975Z,32.56
2023-05-09T14:24:19.984Z,32.53
2023-05-09T14:25:20.050Z,32.55
2023-05-09T14:26:20.094Z,32.58
2023-05-09T14:27:20.117Z,32.57
2023-05-09T14:28:20.170Z,32.61
2023-05-09T14:29:20.190Z,32.54
2023-05-09T14:30:20.266Z,32.55
2023-05-09T14:31:20.294Z,32.57
2023-05-09T14:32:20.275Z,32.60
2023-05-09T14:33:20.304Z,32.63
2023-05-09T14:34:20.350Z,32.60
2023-05-09T14:35:20.413Z,32.70
2023-05-09T14:36:20.495Z,32.74
2023-05-09T14:37:20.427Z,32.76
2023-05-09T14:38:20.434Z,32.78
2023-05-09T14:39:20.429Z,32.81
2023-05-09T14:40:20.519Z,32.90
2023-05-09T14:41:21.551Z,33.06
2023-05-09T14:42:20.502Z,33.21
2023-05-09T14:43:20.516Z,33.28
2023-05-09T14:44:20.520Z,33.28
2023-05-09T14:45:20.604Z,33.31
2023-05-09T14:46:20.598Z,33.33
2023-05-09T14:47:20.584Z,33.34
2023-05-09T14:48:20.565Z,33.35
2023-05-09T14:49:20.591Z,33.39
2023-05-09T14:50:20.559Z,33.40
2023-05-09T14:51:20.589Z,33.42
2023-05-09T14:52:20.684Z,33.40
2023-05-09T14:53:20.574Z,33.43
2023-05-09T14:54:20.612Z,33.42
2023-05-09T14:55:20.605Z,33.46
2023-05-09T14:56:20.592Z,33.46
2023-05-09T14:57:20.613Z,33.50
2023-05-09T14:58:20.632Z,33.53
2023-05-09T14:59:20.637Z,33.50
2023-05-09T15:00:22.302Z,33.50
2023-05-09T15:01:20.613Z,33.54
2023-05-09T15:02:20.629Z,33.54
2023-05-09T15:03:20.627Z,33.52
2023-05-09T15:04:20.652Z,33.58
2023-05-09T15:05:20.679Z,33.58
2023-05-09T15:06:20.625Z,33.60
2023-05-09T15:07:20.647Z,33.58
2023-05-09T15:08:20.732Z,33.60
2023-05-09T15:09:20.684Z,33.63
2023-05-09T15:10:20.656Z,33.64
2023-05-09T15:11:20.640Z,33.65
2023-05-09T15:12:20.690Z,33.69
2023-05-09T15:13:20.773Z,33.71
2023-05-09T15:14:20.676Z,33.71
2023-05-09T15:15:20.658Z,33.73
2023-05-09T15:16:20.677Z,33.72
2023-05-09T15:17:20.639Z,33.70
2023-05-09T15:18:20.645Z,33.75
2023-05-09T15:19:20.654Z,33.76
2023-05-09T15:20:20.645Z,33.77
2023-05-09T15:21:20.654Z,33.80
2023-05-09T15:22:20.619Z,33.80
2023-05-09T15:23:20.685Z,33.80
2023-05-09T15:24:20.706Z,33.79
2023-05-09T15:25:20.632Z,33.82
2023-05-09T15:26:20.621Z,33.84
2023-05-09T15:27:20.616Z,33.85
2023-05-09T15:28:20.605Z,33.78
2023-05-09T15:29:20.625Z,33.86
2023-05-09T15:30:20.585Z,33.83
2023-05-09T15:31:20.669Z,33.86
2023-05-09T15:32:20.612Z,33.87
2023-05-09T15:33:20.617Z,33.87
2023-05-09T15:34:20.577Z,33.87
2023-05-09T15:35:20.607Z,33.93
2023-05-09T15:36:20.571Z,33.92
2023-05-09T15:37:20.583Z,33.93
2023-05-09T15:38:20.594Z,33.96
2023-05-09T15:39:20.610Z,33.99
2023-05-09T15:40:20.661Z,33.99
2023-05-09T15:41:20.565Z,34.01
2023-05-09T15:42:20.579Z,34.00
2023-05-09T15:43:20.556Z,34.00
2023-05-09T15:44:20.557Z,34.06
2023-05-09T15:45:20.569Z,34.06
2023-05-09T15:46:20.642Z,34.07
2023-05-09T15:47:20.634Z,34.09
2023-05-09T15:48:20.586Z,34.11
2023-05-09T15:49:20.586Z,34.08
2023-05-09T15:50:20.606Z,34.09
2023-05-09T15:51:20.597Z,34.10
2023-05-09T15:52:20.582Z,34.12
2023-05-09T15:53:20.626Z,34.15
2023-05-09T15:54:20.612Z,34.15
2023-05-09T15:55:20.694Z,34.17
2023-05-09T15:56:20.720Z,34.15
2023-05-09T15:57:20.614Z,34.18
2023-05-09T15:58:20.633Z,34.18
2023-05-09T15:59:20.629Z,34.19
2023-05-09T16:00:20.632Z,34.19
2023-05-09T16:01:20.689Z,34.22
2023-05-09T16:02:20.668Z,34.21
2023-05-09T16:03:20.775Z,34.23
2023-05-09T16:04:20.665Z,34.23
2023-05-09T16:05:20.684Z,34.26
2023-05-09T16:06:20.656Z,34.24
2023-05-09T16:07:20.892Z,34.29
2023-05-09T16:08:20.665Z,34.25
2023-05-09T16:09:20.685Z,34.30
2023-05-09T16:10:20.640Z,34.29
2023-05-09T16:11:20.663Z,34.30
2023-05-09T16:12:20.753Z,34.32
2023-05-09T16:13:20.689Z,34.34
2023-05-09T16:14:20.713Z,34.35
2023-05-09T16:15:20.669Z,34.34
2023-05-09T16:16:20.720Z,34.36
2023-05-09T16:17:20.680Z,34.35
2023-05-09T16:18:20.704Z,34.37
2023-05-09T16:19:20.701Z,34.41
2023-05-09T16:20:20.686Z,34.41
2023-05-09T16:21:20.732Z,34.40
2023-05-09T16:22:20.694Z,34.42
2023-05-09T16:23:20.738Z,34.42
2023-05-09T16:24:20.710Z,34.43
2023-05-09T16:25:20.698Z,34.44
2023-05-09T16:26:20.749Z,34.41
2023-05-09T16:27:20.727Z,34.44
2023-05-09T16:28:20.808Z,34.44
2023-05-09T16:29:20.759Z,34.46
2023-05-09T16:30:20.745Z,34.48
2023-05-09T16:31:20.822Z,34.45
2023-05-09T16:32:20.768Z,34.48
2023-05-09T16:33:20.791Z,34.50
2023-05-09T16:34:20.768Z,34.51
2023-05-09T16:35:20.802Z,34.50
2023-05-09T16:36:20.832Z,34.54
2023-05-09T16:37:20.847Z,34.50
2023-05-09T16:38:20.829Z,34.52
2023-05-09T16:39:20.832Z,34.55
2023-05-09T16:40:20.826Z,34.55
2023-05-09T16:41:20.844Z,34.54
2023-05-09T16:42:20.873Z,34.54
2023-05-09T16:43:20.863Z,34.54
2023-05-09T16:44:20.980Z,34.56
2023-05-09T16:45:20.958Z,34.58
2023-05-09T16:46:20.950Z,34.57
2023-05-09T16:47:20.929Z,34.57
2023-05-09T16:48:20.914Z,34.60
2023-05-09T16:49:20.933Z,34.60
2023-05-09T16:50:20.927Z,34.60
2023-05-09T16:51:20.995Z,34.61
2023-05-09T16:52:21.006Z,34.62
2023-05-09T16:53:20.989Z,34.60
2023-05-09T16:54:21.013Z,34.64
2023-05-09T16:55:21.027Z,34.66
2023-05-09T16:56:21.026Z,34.67
2023-05-09T16:57:21.030Z,34.64
2023-05-09T16:58:21.119Z,34.66
2023-05-09T16:59:21.087Z,34.68
2023-05-09T17:00:21.091Z,34.65
